sensor_id;sensor_type;location;lat;lon;timestamp;pressure;altitude;pressure_sealevel;temperature;humidity
20115;BME280;10218;42.874;25.320;2023-05-12T00:00:58;97473.94;;;9.87;62.21
20115;BME280;10218;42.874;25.320;2023-05-12T00:03:25;97465.91;;;9.79;62.69
20115;BME280;10218;42.874;25.320;2023-05-12T00:05:53;97474.75;;;9.80;62.81
20115;BME280;10218;42.874;25.320;2023-05-12T00:08:20;97475.59;;;9.88;62.88
20115;BME280;10218;42.874;25.320;2023-05-12T00:10:47;97474.28;;;9.93;62.04
20115;BME280;10218;42.874;25.320;2023-05-12T00:13:14;97476.25;;;9.82;62.17
20115;BME280;10218;42.874;25.320;2023-05-12T00:15:41;97478.28;;;9.88;60.91
20115;BME280;10218;42.874;25.320;2023-05-12T00:18:08;97483.41;;;9.82;62.02
20115;BME280;10218;42.874;25.320;2023-05-12T00:20:36;97482.22;;;9.76;62.12
20115;BME280;10218;42.874;25.320;2023-05-12T00:23:03;97475.38;;;9.74;62.80
20115;BME280;10218;42.874;25.320;2023-05-12T00:25:31;97473.97;;;9.62;62.22
20115;BME280;10218;42.874;25.320;2023-05-12T00:27:58;97488.91;;;9.80;61.68
20115;BME280;10218;42.874;25.320;2023-05-12T00:30:25;97485.22;;;9.73;62.26
20115;BME280;10218;42.874;25.320;2023-05-12T00:32:52;97472.16;;;9.70;61.50
20115;BME280;10218;42.874;25.320;2023-05-12T00:35:19;97467.66;;;9.63;62.32
20115;BME280;10218;42.874;25.320;2023-05-12T00:37:46;97478.47;;;9.61;62.66
20115;BME280;10218;42.874;25.320;2023-05-12T00:40:13;97467.78;;;9.61;63.80
20115;BME280;10218;42.874;25.320;2023-05-12T00:42:41;97468.97;;;9.59;63.44
20115;BME280;10218;42.874;25.320;2023-05-12T00:45:08;97470.09;;;9.56;61.66
20115;BME280;10218;42.874;25.320;2023-05-12T00:47:35;97468.34;;;9.65;63.71
20115;BME280;10218;42.874;25.320;2023-05-12T00:50:04;97462.37;;;9.19;75.26
20115;BME280;10218;42.874;25.320;2023-05-12T00:52:31;97466.56;;;9.22;78.13
20115;BME280;10218;42.874;25.320;2023-05-12T00:54:59;97468.00;;;9.16;81.89
20115;BME280;10218;42.874;25.320;2023-05-12T00:57:26;97466.53;;;8.96;89.31
20115;BME280;10218;42.874;25.320;2023-05-12T00:59:54;97477.72;;;8.64;96.55
20115;BME280;10218;42.874;25.320;2023-05-12T01:02:22;97466.62;;;8.86;100.00
20115;BME280;10218;42.874;25.320;2023-05-12T01:04:49;97475.44;;;8.69;100.00
20115;BME280;10218;42.874;25.320;2023-05-12T01:07:21;97474.62;;;8.51;100.00
20115;BME280;10218;42.874;25.320;2023-05-12T01:09:56;97476.06;;;8.45;100.00
20115;BME280;10218;42.874;25.320;2023-05-12T01:12:24;97479.78;;;8.07;100.00
20115;BME280;10218;42.874;25.320;2023-05-12T01:14:54;97480.19;;;7.85;100.00
20115;BME280;10218;42.874;25.320;2023-05-12T01:17:27;97487.00;;;7.97;100.00
20115;BME280;10218;42.874;25.320;2023-05-12T01:19:59;97467.09;;;8.01;100.00
20115;BME280;10218;42.874;25.320;2023-05-12T01:22:28;97480.25;;;8.21;100.00
20115;BME280;10218;42.874;25.320;2023-05-12T01:25:03;97469.94;;;8.18;100.00
20115;BME280;10218;42.874;25.320;2023-05-12T01:27:32;97480.88;;;7.87;100.00
20115;BME280;10218;42.874;25.320;2023-05-12T01:30:02;97471.91;;;7.88;100.00
20115;BME280;10218;42.874;25.320;2023-05-12T01:32:30;97464.13;;;8.04;100.00
20115;BME280;10218;42.874;25.320;2023-05-12T01:34:57;97481.25;;;7.65;100.00
20115;BME280;10218;42.874;25.320;2023-05-12T01:37:26;97475.97;;;7.83;100.00
20115;BME280;10218;42.874;25.320;2023-05-12T01:39:53;97481.81;;;7.96;100.00
20115;BME280;10218;42.874;25.320;2023-05-12T01:42:20;97480.66;;;7.98;100.00
20115;BME280;10218;42.874;25.320;2023-05-12T01:44:48;97467.91;;;7.74;100.00
20115;BME280;10218;42.874;25.320;2023-05-12T01:47:16;97471.19;;;7.59;100.00
20115;BME280;10218;42.874;25.320;2023-05-12T01:49:44;97462.13;;;7.52;100.00
20115;BME280;10218;42.874;25.320;2023-05-12T01:52:12;97467.81;;;7.57;100.00
20115;BME280;10218;42.874;25.320;2023-05-12T01:54:39;97451.78;;;7.49;100.00
20115;BME280;10218;42.874;25.320;2023-05-12T01:57:07;97469.44;;;7.40;100.00
20115;BME280;10218;42.874;25.320;2023-05-12T01:59:34;97470.06;;;7.24;100.00
20115;BME280;10218;42.874;25.320;2023-05-12T02:02:02;97468.78;;;7.28;100.00
20115;BME280;10218;42.874;25.320;2023-05-12T02:04:30;97468.53;;;7.12;100.00
20115;BME280;10218;42.874;25.320;2023-05-12T02:06:57;97466.72;;;7.13;100.00
20115;BME280;10218;42.874;25.320;2023-05-12T02:09:24;97469.31;;;6.85;100.00
20115;BME280;10218;42.874;25.320;2023-05-12T02:11:52;97469.09;;;7.06;100.00
20115;BME280;10218;42.874;25.320;2023-05-12T02:14:19;97461.72;;;6.81;100.00
20115;BME280;10218;42.874;25.320;2023-05-12T02:16:47;97461.31;;;6.76;100.00
20115;BME280;10218;42.874;25.320;2023-05-12T02:19:19;97466.38;;;6.79;100.00
20115;BME280;10218;42.874;25.320;2023-05-12T02:21:47;97458.00;;;6.64;100.00
20115;BME280;10218;42.874;25.320;2023-05-12T02:24:14;97472.88;;;7.13;100.00
20115;BME280;10218;42.874;25.320;2023-05-12T02:26:42;97466.00;;;7.20;100.00
20115;BME280;10218;42.874;25.320;2023-05-12T02:29:10;97467.50;;;7.32;100.00
20115;BME280;10218;42.874;25.320;2023-05-12T02:31:37;97475.56;;;7.50;100.00
20115;BME280;10218;42.874;25.320;2023-05-12T02:34:10;97467.66;;;7.21;100.00
20115;BME280;10218;42.874;25.320;2023-05-12T02:36:37;97465.34;;;7.09;100.00
20115;BME280;10218;42.874;25.320;2023-05-12T02:39:04;97473.38;;;7.36;100.00
20115;BME280;10218;42.874;25.320;2023-05-12T02:41:32;97467.34;;;7.44;100.00
20115;BME280;10218;42.874;25.320;2023-05-12T02:43:59;97472.41;;;7.27;100.00
20115;BME280;10218;42.874;25.320;2023-05-12T02:46:26;97476.41;;;6.95;100.00
20115;BME280;10218;42.874;25.320;2023-05-12T02:48:54;97470.81;;;6.98;100.00
20115;BME280;10218;42.874;25.320;2023-05-12T02:51:21;97476.34;;;7.23;100.00
20115;BME280;10218;42.874;25.320;2023-05-12T02:53:48;97471.41;;;7.38;100.00
20115;BME280;10218;42.874;25.320;2023-05-12T02:56:16;97482.06;;;7.28;100.00
20115;BME280;10218;42.874;25.320;2023-05-12T02:58:43;97466.56;;;7.61;100.00
20115;BME280;10218;42.874;25.320;2023-05-12T03:01:11;97473.19;;;7.84;100.00
20115;BME280;10218;42.874;25.320;2023-05-12T03:03:39;97476.91;;;7.64;100.00
20115;BME280;10218;42.874;25.320;2023-05-12T03:06:07;97481.28;;;7.92;100.00
20115;BME280;10218;42.874;25.320;2023-05-12T03:08:34;97468.44;;;7.78;100.00
20115;BME280;10218;42.874;25.320;2023-05-12T03:11:02;97482.44;;;7.80;100.00
20115;BME280;10218;42.874;25.320;2023-05-12T03:13:29;97474.94;;;7.93;100.00
20115;BME280;10218;42.874;25.320;2023-05-12T03:15:56;97473.38;;;7.73;100.00
20115;BME280;10218;42.874;25.320;2023-05-12T03:18:28;97476.34;;;7.70;100.00
20115;BME280;10218;42.874;25.320;2023-05-12T03:20:55;97481.22;;;8.02;100.00
20115;BME280;10218;42.874;25.320;2023-05-12T03:23:22;97486.37;;;7.76;100.00
20115;BME280;10218;42.874;25.320;2023-05-12T03:25:49;97484.78;;;7.83;100.00
20115;BME280;10218;42.874;25.320;2023-05-12T03:28:16;97481.09;;;8.21;100.00
20115;BME280;10218;42.874;25.320;2023-05-12T03:30:43;97490.59;;;7.69;100.00
20115;BME280;10218;42.874;25.320;2023-05-12T03:33:10;97492.00;;;8.00;100.00
20115;BME280;10218;42.874;25.320;2023-05-12T03:35:38;97492.28;;;8.25;100.00
20115;BME280;10218;42.874;25.320;2023-05-12T03:38:05;97489.91;;;8.31;100.00
20115;BME280;10218;42.874;25.320;2023-05-12T03:40:32;97497.03;;;8.31;100.00
20115;BME280;10218;42.874;25.320;2023-05-12T03:42:59;97499.03;;;8.64;100.00
20115;BME280;10218;42.874;25.320;2023-05-12T03:45:26;97504.22;;;8.48;100.00
20115;BME280;10218;42.874;25.320;2023-05-12T03:47:54;97506.25;;;8.54;100.00
20115;BME280;10218;42.874;25.320;2023-05-12T03:50:21;97506.03;;;8.65;100.00
20115;BME280;10218;42.874;25.320;2023-05-12T03:52:48;97504.38;;;8.82;100.00
20115;BME280;10218;42.874;25.320;2023-05-12T03:55:15;97514.19;;;8.81;100.00
20115;BME280;10218;42.874;25.320;2023-05-12T03:57:43;97514.13;;;8.73;100.00
20115;BME280;10218;42.874;25.320;2023-05-12T04:00:10;97513.50;;;8.62;100.00
20115;BME280;10218;42.874;25.320;2023-05-12T04:02:38;97518.06;;;9.05;100.00
20115;BME280;10218;42.874;25.320;2023-05-12T04:05:06;97516.19;;;8.97;100.00
20115;BME280;10218;42.874;25.320;2023-05-12T04:07:34;97517.44;;;9.11;100.00
20115;BME280;10218;42.874;25.320;2023-05-12T04:10:01;97524.09;;;9.07;100.00
20115;BME280;10218;42.874;25.320;2023-05-12T04:12:29;97527.88;;;9.04;100.00
20115;BME280;10218;42.874;25.320;2023-05-12T04:14:56;97527.88;;;9.22;100.00
20115;BME280;10218;42.874;25.320;2023-05-12T04:17:23;97522.38;;;9.23;100.00
20115;BME280;10218;42.874;25.320;2023-05-12T04:19:51;97533.09;;;9.49;100.00
20115;BME280;10218;42.874;25.320;2023-05-12T04:22:19;97526.06;;;9.48;100.00
20115;BME280;10218;42.874;25.320;2023-05-12T04:24:46;97528.78;;;9.56;100.00
20115;BME280;10218;42.874;25.320;2023-05-12T04:27:13;97528.12;;;9.54;100.00
20115;BME280;10218;42.874;25.320;2023-05-12T04:29:41;97531.41;;;9.74;100.00
20115;BME280;10218;42.874;25.320;2023-05-12T04:32:08;97525.53;;;9.70;100.00
20115;BME280;10218;42.874;25.320;2023-05-12T04:34:35;97533.81;;;9.85;100.00
20115;BME280;10218;42.874;25.320;2023-05-12T04:37:03;97533.84;;;10.27;100.00
20115;BME280;10218;42.874;25.320;2023-05-12T04:39:30;97535.03;;;9.99;100.00
20115;BME280;10218;42.874;25.320;2023-05-12T04:41:59;97534.19;;;10.24;100.00
20115;BME280;10218;42.874;25.320;2023-05-12T04:44:28;97538.87;;;10.30;100.00
20115;BME280;10218;42.874;25.320;2023-05-12T04:46:55;97543.19;;;10.23;99.08
20115;BME280;10218;42.874;25.320;2023-05-12T04:49:22;97532.28;;;10.50;100.00
20115;BME280;10218;42.874;25.320;2023-05-12T04:51:49;97538.97;;;10.62;87.19
20115;BME280;10218;42.874;25.320;2023-05-12T04:54:16;97536.28;;;9.86;100.00
20115;BME280;10218;42.874;25.320;2023-05-12T04:56:44;97535.91;;;10.07;100.00
20115;BME280;10218;42.874;25.320;2023-05-12T04:59:11;97530.87;;;10.38;100.00
20115;BME280;10218;42.874;25.320;2023-05-12T05:01:41;97539.25;;;10.43;100.00
20115;BME280;10218;42.874;25.320;2023-05-12T05:04:09;97532.66;;;10.80;97.18
20115;BME280;10218;42.874;25.320;2023-05-12T05:06:36;97535.56;;;11.10;66.37
20115;BME280;10218;42.874;25.320;2023-05-12T05:09:03;97541.38;;;10.98;61.32
20115;BME280;10218;42.874;25.320;2023-05-12T05:11:31;97534.03;;;11.08;66.84
20115;BME280;10218;42.874;25.320;2023-05-12T05:13:58;97535.19;;;10.81;77.53
20115;BME280;10218;42.874;25.320;2023-05-12T05:16:25;97538.03;;;10.88;89.16
20115;BME280;10218;42.874;25.320;2023-05-12T05:18:53;97540.22;;;11.57;82.51
20115;BME280;10218;42.874;25.320;2023-05-12T05:21:22;97538.00;;;11.69;83.02
20115;BME280;10218;42.874;25.320;2023-05-12T05:23:49;97532.37;;;11.47;86.08
20115;BME280;10218;42.874;25.320;2023-05-12T05:26:16;97530.72;;;11.22;87.04
20115;BME280;10218;42.874;25.320;2023-05-12T05:28:43;97534.34;;;11.53;84.29
20115;BME280;10218;42.874;25.320;2023-05-12T05:31:14;97541.38;;;11.87;76.42
20115;BME280;10218;42.874;25.320;2023-05-12T05:33:43;97538.50;;;12.43;69.85
20115;BME280;10218;42.874;25.320;2023-05-12T05:36:10;97542.38;;;12.72;62.81
20115;BME280;10218;42.874;25.320;2023-05-12T05:38:37;97542.44;;;12.56;53.99
20115;BME280;10218;42.874;25.320;2023-05-12T05:41:05;97550.03;;;12.75;56.94
20115;BME280;10218;42.874;25.320;2023-05-12T05:43:33;97545.13;;;12.86;49.64
20115;BME280;10218;42.874;25.320;2023-05-12T05:46:00;97558.31;;;12.96;48.98
20115;BME280;10218;42.874;25.320;2023-05-12T05:48:28;97542.62;;;13.08;49.54
20115;BME280;10218;42.874;25.320;2023-05-12T05:50:55;97552.63;;;13.22;46.47
20115;BME280;10218;42.874;25.320;2023-05-12T05:53:22;97551.03;;;13.13;45.69
20115;BME280;10218;42.874;25.320;2023-05-12T05:55:50;97548.81;;;13.16;46.77
20115;BME280;10218;42.874;25.320;2023-05-12T05:58:17;97556.22;;;13.14;45.40
20115;BME280;10218;42.874;25.320;2023-05-12T06:00:44;97553.53;;;13.06;47.30
20115;BME280;10218;42.874;25.320;2023-05-12T06:03:12;97554.63;;;12.97;46.75
20115;BME280;10218;42.874;25.320;2023-05-12T06:05:40;97551.50;;;13.16;45.06
20115;BME280;10218;42.874;25.320;2023-05-12T06:08:09;97549.34;;;13.35;44.14
20115;BME280;10218;42.874;25.320;2023-05-12T06:10:39;97552.88;;;13.35;45.91
20115;BME280;10218;42.874;25.320;2023-05-12T06:13:09;97548.47;;;13.57;46.43
20115;BME280;10218;42.874;25.320;2023-05-12T06:15:36;97551.69;;;13.75;44.77
20115;BME280;10218;42.874;25.320;2023-05-12T06:18:04;97559.22;;;14.09;45.77
20115;BME280;10218;42.874;25.320;2023-05-12T06:20:31;97555.50;;;14.69;46.48
20115;BME280;10218;42.874;25.320;2023-05-12T06:22:58;97554.34;;;14.57;42.73
20115;BME280;10218;42.874;25.320;2023-05-12T06:25:26;97557.91;;;14.64;42.99
20115;BME280;10218;42.874;25.320;2023-05-12T06:27:53;97555.59;;;14.75;42.04
20115;BME280;10218;42.874;25.320;2023-05-12T06:30:20;97562.31;;;14.50;41.33
20115;BME280;10218;42.874;25.320;2023-05-12T06:32:47;97573.00;;;14.79;41.38
20115;BME280;10218;42.874;25.320;2023-05-12T06:35:14;97567.41;;;14.95;41.31
20115;BME280;10218;42.874;25.320;2023-05-12T06:37:41;97556.66;;;14.95;40.64
20115;BME280;10218;42.874;25.320;2023-05-12T06:40:13;97578.03;;;14.82;40.48
20115;BME280;10218;42.874;25.320;2023-05-12T06:42:40;97564.59;;;14.09;42.23
20115;BME280;10218;42.874;25.320;2023-05-12T06:45:08;97568.84;;;15.13;41.64
20115;BME280;10218;42.874;25.320;2023-05-12T06:47:36;97574.06;;;14.64;40.33
20115;BME280;10218;42.874;25.320;2023-05-12T06:50:04;97560.56;;;15.14;41.96
20115;BME280;10218;42.874;25.320;2023-05-12T06:52:31;97573.53;;;14.89;41.01
20115;BME280;10218;42.874;25.320;2023-05-12T06:54:58;97575.22;;;14.90;40.89
20115;BME280;10218;42.874;25.320;2023-05-12T06:57:25;97571.34;;;14.78;40.20
20115;BME280;10218;42.874;25.320;2023-05-12T06:59:52;97582.94;;;14.79;40.26
20115;BME280;10218;42.874;25.320;2023-05-12T07:02:20;97580.91;;;14.81;39.87
20115;BME280;10218;42.874;25.320;2023-05-12T07:04:47;97573.12;;;14.27;41.54
20115;BME280;10218;42.874;25.320;2023-05-12T07:07:14;97573.81;;;14.94;41.51
20115;BME280;10218;42.874;25.320;2023-05-12T07:09:41;97576.75;;;14.49;41.90
20115;BME280;10218;42.874;25.320;2023-05-12T07:12:08;97573.22;;;14.63;41.79
20115;BME280;10218;42.874;25.320;2023-05-12T07:14:35;97570.66;;;14.40;42.03
20115;BME280;10218;42.874;25.320;2023-05-12T07:17:03;97579.03;;;14.08;43.86
20115;BME280;10218;42.874;25.320;2023-05-12T07:19:30;97582.72;;;14.95;43.17
20115;BME280;10218;42.874;25.320;2023-05-12T07:21:57;97569.94;;;15.39;44.49
20115;BME280;10218;42.874;25.320;2023-05-12T07:24:25;97569.63;;;15.49;43.99
20115;BME280;10218;42.874;25.320;2023-05-12T07:26:53;97575.22;;;15.48;44.29
20115;BME280;10218;42.874;25.320;2023-05-12T07:29:20;97575.09;;;15.56;42.29
20115;BME280;10218;42.874;25.320;2023-05-12T07:31:48;97575.13;;;15.20;43.28
20115;BME280;10218;42.874;25.320;2023-05-12T07:34:15;97565.31;;;15.69;42.95
20115;BME280;10218;42.874;25.320;2023-05-12T07:36:42;97576.56;;;16.07;41.88
20115;BME280;10218;42.874;25.320;2023-05-12T07:39:09;97576.41;;;16.15;42.65
20115;BME280;10218;42.874;25.320;2023-05-12T07:41:36;97564.09;;;16.68;40.85
20115;BME280;10218;42.874;25.320;2023-05-12T07:44:05;97571.28;;;15.93;41.26
20115;BME280;10218;42.874;25.320;2023-05-12T07:46:33;97581.19;;;15.43;41.12
20115;BME280;10218;42.874;25.320;2023-05-12T07:49:00;97585.78;;;15.70;40.38
20115;BME280;10218;42.874;25.320;2023-05-12T07:51:27;97570.56;;;16.40;39.67
20115;BME280;10218;42.874;25.320;2023-05-12T07:53:55;97567.84;;;15.77;40.70
20115;BME280;10218;42.874;25.320;2023-05-12T07:56:23;97581.28;;;15.99;39.47
20115;BME280;10218;42.874;25.320;2023-05-12T07:58:50;97581.56;;;15.82;39.64
20115;BME280;10218;42.874;25.320;2023-05-12T08:01:18;97587.28;;;15.73;40.13
20115;BME280;10218;42.874;25.320;2023-05-12T08:03:45;97583.00;;;15.85;41.09
20115;BME280;10218;42.874;25.320;2023-05-12T08:06:12;97573.56;;;16.23;40.21
20115;BME280;10218;42.874;25.320;2023-05-12T08:08:39;97570.75;;;16.10;41.77
20115;BME280;10218;42.874;25.320;2023-05-12T08:11:06;97578.88;;;16.45;40.94
20115;BME280;10218;42.874;25.320;2023-05-12T08:13:36;97578.06;;;16.16;39.95
20115;BME280;10218;42.874;25.320;2023-05-12T08:16:03;97587.66;;;15.49;41.27
20115;BME280;10218;42.874;25.320;2023-05-12T08:18:31;97575.47;;;16.02;40.78
20115;BME280;10218;42.874;25.320;2023-05-12T08:20:57;97577.00;;;15.83;40.89
20115;BME280;10218;42.874;25.320;2023-05-12T08:23:24;97579.69;;;16.11;41.62
20115;BME280;10218;42.874;25.320;2023-05-12T08:25:52;97582.47;;;15.90;41.77
20115;BME280;10218;42.874;25.320;2023-05-12T08:28:19;97576.81;;;16.12;41.80
20115;BME280;10218;42.874;25.320;2023-05-12T08:30:46;97576.78;;;16.75;40.79
20115;BME280;10218;42.874;25.320;2023-05-12T08:33:13;97577.94;;;16.24;42.25
20115;BME280;10218;42.874;25.320;2023-05-12T08:35:41;97569.72;;;16.74;40.25
20115;BME280;10218;42.874;25.320;2023-05-12T08:38:08;97574.16;;;16.19;41.69
20115;BME280;10218;42.874;25.320;2023-05-12T08:40:43;97570.69;;;16.25;41.59
20115;BME280;10218;42.874;25.320;2023-05-12T08:43:23;97568.53;;;16.48;40.23
20115;BME280;10218;42.874;25.320;2023-05-12T08:45:52;97573.88;;;16.07;41.50
20115;BME280;10218;42.874;25.320;2023-05-12T08:48:26;97571.22;;;16.14;42.36
20115;BME280;10218;42.874;25.320;2023-05-12T08:50:55;97573.25;;;16.40;40.66
20115;BME280;10218;42.874;25.320;2023-05-12T08:53:24;97574.41;;;17.06;40.54
20115;BME280;10218;42.874;25.320;2023-05-12T08:55:54;97573.94;;;17.96;40.56
20115;BME280;10218;42.874;25.320;2023-05-12T08:58:43;97576.44;;;17.78;39.66
20115;BME280;10218;42.874;25.320;2023-05-12T09:01:11;97583.72;;;18.17;40.24
20115;BME280;10218;42.874;25.320;2023-05-12T09:03:40;97575.41;;;17.85;38.47
20115;BME280;10218;42.874;25.320;2023-05-12T09:06:08;97586.94;;;17.33;36.34
20115;BME280;10218;42.874;25.320;2023-05-12T09:08:36;97579.75;;;16.93;36.37
20115;BME280;10218;42.874;25.320;2023-05-12T09:11:05;97586.44;;;17.77;36.73
20115;BME280;10218;42.874;25.320;2023-05-12T09:13:59;97589.69;;;17.53;35.58
20115;BME280;10218;42.874;25.320;2023-05-12T09:16:30;97593.28;;;17.67;36.26
20115;BME280;10218;42.874;25.320;2023-05-12T09:19:00;97580.66;;;17.06;36.11
20115;BME280;10218;42.874;25.320;2023-05-12T09:21:27;97593.53;;;17.18;39.47
20115;BME280;10218;42.874;25.320;2023-05-12T09:24:13;97580.75;;;16.79;39.80
20115;BME280;10218;42.874;25.320;2023-05-12T09:26:45;97579.44;;;17.29;36.79
20115;BME280;10218;42.874;25.320;2023-05-12T09:29:13;97583.19;;;17.21;36.55
20115;BME280;10218;42.874;25.320;2023-05-12T09:31:50;97583.28;;;17.74;35.71
20115;BME280;10218;42.874;25.320;2023-05-12T09:34:18;97583.50;;;17.99;35.37
20115;BME280;10218;42.874;25.320;2023-05-12T09:36:58;97580.81;;;17.92;37.46
20115;BME280;10218;42.874;25.320;2023-05-12T09:39:25;97577.87;;;17.93;36.84
20115;BME280;10218;42.874;25.320;2023-05-12T09:41:52;97569.56;;;18.28;37.98
20115;BME280;10218;42.874;25.320;2023-05-12T09:44:20;97577.25;;;16.85;39.01
20115;BME280;10218;42.874;25.320;2023-05-12T09:46:47;97580.19;;;16.55;40.24
20115;BME280;10218;42.874;25.320;2023-05-12T09:49:22;97562.25;;;17.36;39.51
20115;BME280;10218;42.874;25.320;2023-05-12T09:51:57;97587.72;;;16.32;40.99
20115;BME280;10218;42.874;25.320;2023-05-12T09:54:26;97579.91;;;16.44;41.45
20115;BME280;10218;42.874;25.320;2023-05-12T09:57:00;97581.44;;;16.94;40.91
20115;BME280;10218;42.874;25.320;2023-05-12T09:59:33;97580.28;;;16.68;40.93
20115;BME280;10218;42.874;25.320;2023-05-12T10:02:04;97583.63;;;17.31;40.12
20115;BME280;10218;42.874;25.320;2023-05-12T10:04:43;97577.94;;;16.59;41.23
20115;BME280;10218;42.874;25.320;2023-05-12T10:07:13;97580.53;;;17.54;39.88
20115;BME280;10218;42.874;25.320;2023-05-12T10:09:41;97571.66;;;18.00;40.91
20115;BME280;10218;42.874;25.320;2023-05-12T10:12:09;97578.28;;;18.04;39.96
20115;BME280;10218;42.874;25.320;2023-05-12T10:14:37;97585.84;;;17.15;40.77
20115;BME280;10218;42.874;25.320;2023-05-12T10:17:05;97594.19;;;17.20;41.34
20115;BME280;10218;42.874;25.320;2023-05-12T10:19:35;97589.84;;;17.38;40.60
20115;BME280;10218;42.874;25.320;2023-05-12T10:22:02;97571.16;;;17.30;41.04
20115;BME280;10218;42.874;25.320;2023-05-12T10:24:32;97582.88;;;18.23;39.42
20115;BME280;10218;42.874;25.320;2023-05-12T10:27:00;97575.44;;;19.34;38.04
20115;BME280;10218;42.874;25.320;2023-05-12T10:29:28;97576.53;;;18.75;38.92
20115;BME280;10218;42.874;25.320;2023-05-12T10:31:59;97572.69;;;19.72;38.81
20115;BME280;10218;42.874;25.320;2023-05-12T10:34:32;97567.72;;;20.79;38.78
20115;BME280;10218;42.874;25.320;2023-05-12T10:37:00;97565.91;;;21.28;37.70
20115;BME280;10218;42.874;25.320;2023-05-12T10:39:30;97560.31;;;19.82;37.12
20115;BME280;10218;42.874;25.320;2023-05-12T10:42:08;97556.50;;;19.65;37.66
20115;BME280;10218;42.874;25.320;2023-05-12T10:44:50;97575.66;;;19.26;37.14
20115;BME280;10218;42.874;25.320;2023-05-12T10:47:18;97578.25;;;18.43;38.46
20115;BME280;10218;42.874;25.320;2023-05-12T10:49:54;97573.09;;;19.75;36.34
20115;BME280;10218;42.874;25.320;2023-05-12T10:52:22;97567.25;;;19.40;36.55
20115;BME280;10218;42.874;25.320;2023-05-12T10:54:59;97563.00;;;20.07;37.30
20115;BME280;10218;42.874;25.320;2023-05-12T10:57:26;97557.62;;;20.50;36.92
20115;BME280;10218;42.874;25.320;2023-05-12T10:59:56;97555.81;;;21.17;36.56
20115;BME280;10218;42.874;25.320;2023-05-12T11:02:28;97541.56;;;21.74;34.73
20115;BME280;10218;42.874;25.320;2023-05-12T11:05:03;97545.84;;;20.74;35.38
20115;BME280;10218;42.874;25.320;2023-05-12T11:07:32;97549.31;;;21.18;35.02
20115;BME280;10218;42.874;25.320;2023-05-12T11:10:03;97540.38;;;21.11;35.02
20115;BME280;10218;42.874;25.320;2023-05-12T11:12:32;97538.94;;;20.60;33.57
20115;BME280;10218;42.874;25.320;2023-05-12T11:15:00;97536.69;;;19.89;35.04
20115;BME280;10218;42.874;25.320;2023-05-12T11:17:28;97526.63;;;21.24;34.57
20115;BME280;10218;42.874;25.320;2023-05-12T11:19:55;97539.00;;;22.73;35.92
20115;BME280;10218;42.874;25.320;2023-05-12T11:22:22;97538.63;;;20.86;33.12
20115;BME280;10218;42.874;25.320;2023-05-12T11:24:50;97538.44;;;20.02;34.56
20115;BME280;10218;42.874;25.320;2023-05-12T11:27:20;97536.38;;;19.48;35.25
20115;BME280;10218;42.874;25.320;2023-05-12T11:30:00;97531.37;;;19.76;35.48
20115;BME280;10218;42.874;25.320;2023-05-12T11:32:28;97526.59;;;20.94;34.10
20115;BME280;10218;42.874;25.320;2023-05-12T11:35:08;97523.81;;;21.01;34.78
20115;BME280;10218;42.874;25.320;2023-05-12T11:37:37;97512.78;;;19.80;35.96
20115;BME280;10218;42.874;25.320;2023-05-12T11:42:41;97521.75;;;19.80;37.69
20115;BME280;10218;42.874;25.320;2023-05-12T11:45:23;97526.94;;;19.82;36.54
20115;BME280;10218;42.874;25.320;2023-05-12T11:47:52;97520.84;;;19.86;37.80
20115;BME280;10218;42.874;25.320;2023-05-12T11:50:23;97520.75;;;20.61;38.11
20115;BME280;10218;42.874;25.320;2023-05-12T11:52:50;97519.59;;;20.86;36.42
20115;BME280;10218;42.874;25.320;2023-05-12T11:55:20;97517.81;;;20.01;36.91
20115;BME280;10218;42.874;25.320;2023-05-12T11:57:57;97503.81;;;19.79;37.14
20115;BME280;10218;42.874;25.320;2023-05-12T12:00:33;97513.25;;;20.20;37.56
20115;BME280;10218;42.874;25.320;2023-05-12T12:03:19;97511.03;;;20.53;36.21
20115;BME280;10218;42.874;25.320;2023-05-12T12:05:57;97511.41;;;20.14;36.57
20115;BME280;10218;42.874;25.320;2023-05-12T12:08:26;97518.03;;;19.99;37.37
20115;BME280;10218;42.874;25.320;2023-05-12T12:10:53;97522.41;;;21.10;35.70
20115;BME280;10218;42.874;25.320;2023-05-12T12:13:24;97526.44;;;19.67;37.63
20115;BME280;10218;42.874;25.320;2023-05-12T12:15:52;97506.13;;;22.28;36.18
20115;BME280;10218;42.874;25.320;2023-05-12T12:18:19;97514.81;;;20.09;36.73
20115;BME280;10218;42.874;25.320;2023-05-12T12:20:46;97509.31;;;20.88;35.99
20115;BME280;10218;42.874;25.320;2023-05-12T12:23:14;97501.75;;;20.42;36.88
20115;BME280;10218;42.874;25.320;2023-05-12T12:25:41;97507.22;;;21.50;35.45
20115;BME280;10218;42.874;25.320;2023-05-12T12:28:09;97494.13;;;20.69;36.52
20115;BME280;10218;42.874;25.320;2023-05-12T12:30:37;97502.88;;;21.84;34.71
20115;BME280;10218;42.874;25.320;2023-05-12T12:33:03;97506.47;;;21.31;36.37
20115;BME280;10218;42.874;25.320;2023-05-12T12:35:30;97503.59;;;21.68;35.21
20115;BME280;10218;42.874;25.320;2023-05-12T12:37:58;97511.19;;;22.47;33.67
20115;BME280;10218;42.874;25.320;2023-05-12T12:40:26;97506.25;;;22.44;34.99
20115;BME280;10218;42.874;25.320;2023-05-12T12:42:53;97504.25;;;21.40;35.14
20115;BME280;10218;42.874;25.320;2023-05-12T12:45:20;97523.22;;;19.51;37.67
20115;BME280;10218;42.874;25.320;2023-05-12T12:47:47;97503.53;;;19.87;37.68
20115;BME280;10218;42.874;25.320;2023-05-12T12:50:17;97510.63;;;20.86;36.74
20115;BME280;10218;42.874;25.320;2023-05-12T12:52:45;97512.44;;;19.94;37.68
20115;BME280;10218;42.874;25.320;2023-05-12T12:55:12;97508.44;;;20.58;36.67
20115;BME280;10218;42.874;25.320;2023-05-12T12:57:39;97512.06;;;22.25;34.46
20115;BME280;10218;42.874;25.320;2023-05-12T13:00:07;97496.72;;;20.94;36.67